This is the latest recevied weather packets stored in our database for station/object K4IR. If no packets are shown the sender has not sent any weather packets the latest 10 day(s).
| Time | Temp. | Humidity | Pressure | Rain* | Wind** | Luminosity | Snow |
|---|---|---|---|---|---|---|---|
| 1778025074 | 18.89° C | 76% | 1017.1 hPa | 0 mm | - | 6 W/m² | - |
| 1778024474 | 20° C | 73% | 1017 hPa | 0 mm | - | 11 W/m² | - |
| 1778023868 | 20.56° C | 71% | 1017.2 hPa | 0 mm | - | 17 W/m² | - |
| 1778023263 | 20.56° C | 70% | 1017.2 hPa | 0 mm | - | 33 W/m² | - |
| 1778022659 | 20.56° C | 68% | 1017.4 hPa | 0 mm | - | 36 W/m² | - |
| 1778022058 | 21.11° C | 68% | 1017.3 hPa | 0 mm | - | 32 W/m² | - |
| 1778021456 | 21.11° C | 67% | 1017.5 hPa | 0 mm | - | 34 W/m² | - |
| 1778020857 | 21.67° C | 65% | 1017.3 hPa | 0 mm | - | 53 W/m² | - |
| 1778020256 | 22.22° C | 64% | 1017.2 hPa | 0 mm | - | 67 W/m² | - |
| 1778019654 | 22.78° C | 63% | 1017.4 hPa | 0 mm | - | 102 W/m² | - |
| 1778019053 | 22.78° C | 63% | 1017.4 hPa | 0 mm | - | 118 W/m² | - |
| 1778018448 | 23.89° C | 59% | 1017.3 hPa | 0 mm | - | 198 W/m² | - |
| 1778017844 | 23.33° C | 62% | 1017.3 hPa | 0 mm | - | 292 W/m² | - |
| 1778017244 | 22.78° C | 63% | 1017.3 hPa | 0 mm | - | 118 W/m² | - |
| 1778016644 | 22.22° C | 67% | 1017.3 hPa | 0 mm | - | 324 W/m² | - |
| 1778016044 | 22.22° C | 66% | 1017.4 hPa | 0 mm | - | 128 W/m² | - |
| 1778015443 | 22.22° C | 67% | 1017.6 hPa | 0 mm | - | 412 W/m² | - |
| 1778014837 | 22.22° C | 66% | 1017.3 hPa | 0 mm | - | 104 W/m² | - |
| 1778014238 | 22.22° C | 66% | 1017.4 hPa | 0 mm | - | 121 W/m² | - |
| 1778013632 | 22.78° C | 62% | 1017.3 hPa | 0 mm | - | 123 W/m² | - |
| 1778013032 | 22.78° C | 60% | 1017.4 hPa | 0 mm | - | 168 W/m² | - |
| 1778012430 | 23.33° C | 58% | 1017 hPa | 0 mm | - | 220 W/m² | - |
| 1778011825 | 23.33° C | 59% | 1017.2 hPa | 0 mm | - | 214 W/m² | - |
| 1778011219 | 25.56° C | 51% | 1017.4 hPa | 0 mm | - | 616 W/m² | - |
| 1778010618 | 25° C | 55% | 1017.6 hPa | 0 mm | - | 675 W/m² | - |
* Rain latest hour (hover to see other rain measurements)
** Current wind speed in m/s (hover to see current wind gust speed)